Time;durP1;ratioP1;P1;durP2;ratioP2;P2;SDS_P1;SDS_P2;PMS_P1;PMS_P2;Temp;Humidity;BMP_temperature;BMP_pressure;BME280_temperature;BME280_humidity;BME280_pressure;Samples;Min_cycle;Max_cycle;Signal;HPM_P1;HPM_P2
2022/12/04 00:02:24;;;;;;;;;;;18.10;63.30;;;;;;4400116;32;19983;-85
2022/12/04 00:04:50;;;;;;;;;;;18.10;63.30;;;;;;4399883;32;20034;-84
2022/12/04 00:07:16;;;;;;;;;;;18.10;63.30;;;;;;4399386;32;19987;-84
2022/12/04 00:09:41;;;;;;;;;;;18.00;63.20;;;;;;4401697;32;20056;-85
2022/12/04 00:12:07;;;;;;;;;;;18.00;63.20;;;;;;4402055;32;19971;-85
2022/12/04 00:14:33;;;;;;;;;;;18.00;63.20;;;;;;4409639;32;19971;-85
2022/12/04 00:16:58;;;;;;;;;;;18.00;63.10;;;;;;4415207;32;20069;-85
2022/12/04 00:19:25;;;;;;;;;;;18.00;63.20;;;;;;4415200;32;20010;-85
2022/12/04 00:21:51;;;;;;;;;;;18.00;63.20;;;;;;4414987;32;20401;-85
2022/12/04 00:24:16;;;;;;;;;;;18.00;63.20;;;;;;4415099;32;20312;-85
2022/12/04 00:26:42;;;;;;;;;;;17.90;63.10;;;;;;4415216;32;20141;-85
2022/12/04 00:29:08;;;;;;;;;;;17.90;63.10;;;;;;4414752;32;20058;-85
2022/12/04 00:31:33;;;;;;;;;;;17.90;63.10;;;;;;4415477;32;20384;-84
2022/12/04 00:33:59;;;;;;;;;;;17.90;63.10;;;;;;4414420;32;20018;-85
2022/12/04 00:36:26;;;;;;;;;;;17.90;63.10;;;;;;4415305;32;19976;-85
2022/12/04 00:38:52;;;;;;;;;;;17.90;63.00;;;;;;4415098;32;20343;-84
2022/12/04 00:41:19;;;;;;;;;;;17.80;63.00;;;;;;4414810;32;20317;-85
2022/12/04 00:43:44;;;;;;;;;;;17.80;63.00;;;;;;4415092;32;19979;-85
2022/12/04 00:46:11;;;;;;;;;;;17.80;63.00;;;;;;4414831;32;20278;-85
2022/12/04 00:48:36;;;;;;;;;;;17.80;63.10;;;;;;4414974;32;20041;-85
2022/12/04 00:51:07;;;;;;;;;;;17.80;63.00;;;;;;4401036;32;20546;-85
2022/12/04 00:53:32;;;;;;;;;;;17.80;63.00;;;;;;4415122;32;20507;-85
2022/12/04 00:56:01;;;;;;;;;;;17.80;63.00;;;;;;4413768;32;19959;-85
2022/12/04 00:58:27;;;;;;;;;;;17.80;63.00;;;;;;4415046;32;20082;-85
2022/12/04 01:00:59;;;;;;;;;;;17.80;63.10;;;;;;4400775;32;20157;-85
2022/12/04 01:03:28;;;;;;;;;;;17.80;63.00;;;;;;4414576;32;20031;-85
2022/12/04 01:05:54;;;;;;;;;;;17.70;63.00;;;;;;4396506;32;20007;-84
2022/12/04 01:08:19;;;;;;;;;;;17.70;63.00;;;;;;4399210;32;19964;-85
2022/12/04 01:10:45;;;;;;;;;;;17.70;63.00;;;;;;4399597;32;20074;-85
2022/12/04 01:13:11;;;;;;;;;;;17.70;63.00;;;;;;4399248;32;20072;-85
2022/12/04 01:15:37;;;;;;;;;;;17.70;63.00;;;;;;4399216;32;20427;-84
2022/12/04 01:18:03;;;;;;;;;;;17.70;63.00;;;;;;4399503;32;20632;-84
2022/12/04 01:20:29;;;;;;;;;;;17.70;63.00;;;;;;4399126;32;19987;-84
2022/12/04 01:22:55;;;;;;;;;;;17.60;63.00;;;;;;4399277;32;20317;-85
2022/12/04 01:25:21;;;;;;;;;;;17.60;63.00;;;;;;4399126;32;19998;-84
2022/12/04 01:27:46;;;;;;;;;;;17.60;63.00;;;;;;4410729;32;20110;-84
2022/12/04 01:30:12;;;;;;;;;;;17.60;63.00;;;;;;4398860;32;20011;-85
2022/12/04 01:32:38;;;;;;;;;;;17.60;63.10;;;;;;4399059;32;19971;-84
2022/12/04 01:35:03;;;;;;;;;;;17.60;63.00;;;;;;4399366;32;19972;-85
2022/12/04 01:37:30;;;;;;;;;;;17.60;63.10;;;;;;4399087;32;20464;-84
2022/12/04 01:39:56;;;;;;;;;;;17.50;63.00;;;;;;4411002;32;19979;-84
2022/12/04 01:42:22;;;;;;;;;;;17.50;63.00;;;;;;4399182;32;19979;-84
2022/12/04 01:45:11;;;;;;;;;;;17.50;63.00;;;;;;4398931;32;19995;-84
2022/12/04 01:47:36;;;;;;;;;;;17.50;63.10;;;;;;4397647;32;20496;-85
2022/12/04 01:50:02;;;;;;;;;;;17.50;63.00;;;;;;4402128;32;20531;-84
2022/12/04 01:52:28;;;;;;;;;;;17.50;63.00;;;;;;4402154;32;20859;-84
2022/12/04 01:54:55;;;;;;;;;;;17.50;63.00;;;;;;4401932;32;20424;-84
2022/12/04 01:57:23;;;;;;;;;;;17.50;63.00;;;;;;4402232;32;19982;-84
2022/12/04 01:59:50;;;;;;;;;;;17.40;63.00;;;;;;4400488;32;19991;-82
2022/12/04 02:02:19;;;;;;;;;;;17.50;63.00;;;;;;4402005;32;20496;-83
2022/12/04 02:04:45;;;;;;;;;;;17.40;63.10;;;;;;4413343;32;20025;-84
2022/12/04 02:07:11;;;;;;;;;;;17.40;63.00;;;;;;4415912;32;19967;-84
2022/12/04 02:09:38;;;;;;;;;;;17.40;63.80;;;;;;4403467;32;20500;-84
2022/12/04 02:12:06;;;;;;;;;;;17.40;62.90;;;;;;4417170;32;19999;-85
2022/12/04 02:14:43;;;;;;;;;;;17.40;63.00;;;;;;4417057;32;20393;-84
2022/12/04 02:17:12;;;;;;;;;;;17.40;62.90;;;;;;4417224;32;19975;-85
2022/12/04 02:19:38;;;;;;;;;;;17.40;62.90;;;;;;4416917;32;19990;-83
2022/12/04 02:22:08;;;;;;;;;;;17.40;63.00;;;;;;4416680;32;19971;-84
2022/12/04 02:24:41;;;;;;;;;;;17.30;62.90;;;;;;4416914;32;20466;-84
2022/12/04 02:27:25;;;;;;;;;;;17.30;62.90;;;;;;4416564;32;20303;-83
2022/12/04 02:29:58;;;;;;;;;;;17.30;62.90;;;;;;4416491;32;20058;-83
2022/12/04 02:32:34;;;;;;;;;;;17.30;62.90;;;;;;4416576;32;19975;-84
2022/12/04 02:35:07;;;;;;;;;;;17.30;62.80;;;;;;4416795;32;20101;-84
2022/12/04 02:37:37;;;;;;;;;;;17.30;62.80;;;;;;4416471;32;19975;-84
2022/12/04 02:40:14;;;;;;;;;;;17.30;62.80;;;;;;4415532;32;20093;-84
2022/12/04 02:42:41;;;;;;;;;;;17.30;62.80;;;;;;4416465;32;20325;-84
2022/12/04 02:45:08;;;;;;;;;;;17.20;62.70;;;;;;4416766;32;19991;-82
2022/12/04 02:47:35;;;;;;;;;;;17.20;62.70;;;;;;4416453;32;19986;-83
2022/12/04 02:50:02;;;;;;;;;;;17.20;62.70;;;;;;4416621;32;20068;-84
2022/12/04 02:52:30;;;;;;;;;;;17.20;62.60;;;;;;4416451;32;19983;-84
2022/12/04 02:55:00;;;;;;;;;;;17.20;62.60;;;;;;4416280;32;20078;-84
2022/12/04 02:57:30;;;;;;;;;;;17.20;62.70;;;;;;4415469;32;19981;-84
2022/12/04 02:59:56;;;;;;;;;;;17.20;62.70;;;;;;4415968;32;19985;-83
2022/12/04 03:02:24;;;;;;;;;;;17.20;62.70;;;;;;4416347;32;19983;-83
2022/12/04 03:04:51;;;;;;;;;;;17.20;62.60;;;;;;4416260;32;19971;-83
2022/12/04 03:07:20;;;;;;;;;;;17.20;62.70;;;;;;4403174;32;19991;-83
2022/12/04 03:09:58;;;;;;;;;;;17.10;62.50;;;;;;4416790;32;19983;-84
2022/12/04 03:12:59;;;;;;;;;;;17.10;62.50;;;;;;4417146;32;19987;-84
2022/12/04 03:15:27;;;;;;;;;;;17.10;62.60;;;;;;4369273;32;20330;-84
2022/12/04 03:18:01;;;;;;;;;;;17.10;62.60;;;;;;4407655;32;20081;-84
2022/12/04 03:20:28;;;;;;;;;;;17.10;62.60;;;;;;4411071;32;20022;-84
2022/12/04 03:22:58;;;;;;;;;;;17.20;62.60;;;;;;4410484;32;19993;-84
2022/12/04 03:25:27;;;;;;;;;;;17.20;62.50;;;;;;4408545;32;20162;-84
2022/12/04 03:27:56;;;;;;;;;;;17.20;62.50;;;;;;4401895;32;20173;-84
2022/12/04 03:30:22;;;;;;;;;;;17.20;62.40;;;;;;4401766;32;19979;-84
2022/12/04 03:32:48;;;;;;;;;;;17.20;62.30;;;;;;4403926;32;20011;-84
2022/12/04 03:35:36;;;;;;;;;;;17.20;62.30;;;;;;4405029;32;19975;-84
2022/12/04 03:38:22;;;;;;;;;;;17.20;62.20;;;;;;4402831;32;19995;-84
2022/12/04 03:41:16;;;;;;;;;;;17.20;62.20;;;;;;4390381;32;19990;-84
2022/12/04 03:43:42;;;;;;;;;;;17.20;62.20;;;;;;4400893;32;19995;-84
2022/12/04 03:46:08;;;;;;;;;;;17.20;62.00;;;;;;4406203;32;19992;-84
2022/12/04 03:48:36;;;;;;;;;;;17.30;62.10;;;;;;4401449;32;19979;-84
2022/12/04 03:51:14;;;;;;;;;;;17.30;62.00;;;;;;4403793;32;20413;-84
2022/12/04 03:53:46;;;;;;;;;;;17.30;61.90;;;;;;4400333;32;19986;-84
2022/12/04 03:56:29;;;;;;;;;;;17.30;62.80;;;;;;4401475;32;20499;-84
2022/12/04 03:58:58;;;;;;;;;;;17.30;62.70;;;;;;4399827;32;20114;-84
2022/12/04 04:01:26;;;;;;;;;;;17.30;61.90;;;;;;4399891;32;19988;-84
2022/12/04 04:03:54;;;;;;;;;;;17.30;61.90;;;;;;4399935;32;19991;-84
2022/12/04 04:06:22;;;;;;;;;;;17.30;61.70;;;;;;4400870;32;19990;-83
2022/12/04 04:08:49;;;;;;;;;;;17.30;61.80;;;;;;4399984;32;20102;-83
2022/12/04 04:11:20;;;;;;;;;;;17.30;61.80;;;;;;4402791;32;20033;-84
2022/12/04 04:25:03;;;;;;;;;;;17.30;61.60;;;;;;4399630;32;19990;-84
2022/12/04 04:27:29;;;;;;;;;;;17.30;61.70;;;;;;4403199;32;19999;-84
2022/12/04 04:29:55;;;;;;;;;;;17.30;61.60;;;;;;4411935;32;20353;-84
2022/12/04 04:32:29;;;;;;;;;;;17.30;61.50;;;;;;4400999;32;19984;-84
2022/12/04 04:34:58;;;;;;;;;;;17.30;61.40;;;;;;4399461;32;20412;-83
2022/12/04 04:37:26;;;;;;;;;;;17.30;61.40;;;;;;4400801;32;20077;-83
2022/12/04 04:39:58;;;;;;;;;;;17.30;61.40;;;;;;4400508;32;20126;-83
2022/12/04 04:42:29;;;;;;;;;;;17.40;61.30;;;;;;4400113;32;20110;-83
2022/12/04 04:45:00;;;;;;;;;;;17.40;61.30;;;;;;4401921;32;20022;-84
2022/12/04 04:47:28;;;;;;;;;;;17.40;61.30;;;;;;4403526;32;20034;-83
2022/12/04 04:49:55;;;;;;;;;;;17.40;61.20;;;;;;4414618;32;21301;-84
2022/12/04 04:52:22;;;;;;;;;;;17.40;61.20;;;;;;4414615;32;19990;-84
2022/12/04 04:54:48;;;;;;;;;;;17.40;61.20;;;;;;4414644;32;19983;-84
2022/12/04 04:57:24;;;;;;;;;;;17.40;61.10;;;;;;4414649;32;20011;-84
2022/12/04 04:59:49;;;;;;;;;;;17.40;61.10;;;;;;4414301;32;20085;-84
2022/12/04 05:02:15;;;;;;;;;;;17.40;61.10;;;;;;4414413;32;20313;-84
2022/12/04 05:04:41;;;;;;;;;;;17.40;61.00;;;;;;4414750;32;20393;-84
2022/12/04 05:07:06;;;;;;;;;;;17.30;60.90;;;;;;4414302;32;19972;-84
2022/12/04 05:09:32;;;;;;;;;;;17.30;60.90;;;;;;4407326;32;19978;-84
2022/12/04 05:11:57;;;;;;;;;;;17.30;60.80;;;;;;4414437;32;19967;-84
2022/12/04 05:14:23;;;;;;;;;;;17.30;60.80;;;;;;4414465;32;20019;-84
2022/12/04 05:16:49;;;;;;;;;;;17.20;60.80;;;;;;4414398;32;20320;-83
2022/12/04 05:21:59;;;;;;;;;;;17.20;60.80;;;;;;4413199;32;19992;-83
2022/12/04 05:24:24;;;;;;;;;;;17.20;60.80;;;;;;4402915;32;20308;-84
2022/12/04 05:26:51;;;;;;;;;;;17.20;60.80;;;;;;4405637;32;19975;-83
2022/12/04 05:29:16;;;;;;;;;;;17.20;60.80;;;;;;4407508;32;19998;-84
2022/12/04 05:31:42;;;;;;;;;;;17.20;60.90;;;;;;4405719;32;19978;-84
2022/12/04 05:34:08;;;;;;;;;;;17.20;60.90;;;;;;4414604;32;20052;-84
2022/12/04 05:36:34;;;;;;;;;;;17.20;61.00;;;;;;4405609;32;20003;-84
2022/12/04 05:38:59;;;;;;;;;;;17.10;60.90;;;;;;4403755;32;19963;-83
2022/12/04 05:41:25;;;;;;;;;;;17.10;60.80;;;;;;4404833;32;20069;-83
2022/12/04 05:43:51;;;;;;;;;;;17.10;60.90;;;;;;4408881;32;20305;-84
2022/12/04 05:46:16;;;;;;;;;;;17.10;60.80;;;;;;4410976;32;19967;-84
2022/12/04 05:48:42;;;;;;;;;;;17.10;60.90;;;;;;4405239;32;20027;-83
2022/12/04 05:51:09;;;;;;;;;;;17.10;60.80;;;;;;4404164;32;19991;-84
2022/12/04 05:53:34;;;;;;;;;;;17.10;60.80;;;;;;4404247;32;20333;-84
2022/12/04 05:56:01;;;;;;;;;;;17.10;60.90;;;;;;4409144;32;19976;-84
2022/12/04 05:58:26;;;;;;;;;;;17.10;60.90;;;;;;4407187;32;19975;-83
2022/12/04 06:00:52;;;;;;;;;;;17.10;60.90;;;;;;4406033;32;19986;-83
2022/12/04 06:03:18;;;;;;;;;;;17.10;60.90;;;;;;4404749;32;19979;-84
2022/12/04 06:05:44;;;;;;;;;;;17.10;61.00;;;;;;4404819;32;20023;-84
2022/12/04 06:08:10;;;;;;;;;;;17.00;60.80;;;;;;4404160;32;19967;-84
2022/12/04 06:10:35;;;;;;;;;;;17.00;60.90;;;;;;4406347;32;19979;-84
2022/12/04 06:13:01;;;;;;;;;;;17.00;60.90;;;;;;4409033;32;19983;-84
2022/12/04 06:15:27;;;;;;;;;;;17.00;61.80;;;;;;4405284;32;19987;-84
2022/12/04 06:17:52;;;;;;;;;;;17.00;61.00;;;;;;4407020;32;19964;-83
2022/12/04 06:20:18;;;;;;;;;;;17.00;61.00;;;;;;4404636;32;19968;-84
2022/12/04 06:22:44;;;;;;;;;;;17.00;61.00;;;;;;4406258;32;20548;-84
2022/12/04 06:25:09;;;;;;;;;;;17.00;60.80;;;;;;4403302;32;20026;-83
2022/12/04 06:27:36;;;;;;;;;;;17.00;60.90;;;;;;4403553;32;19983;-83
2022/12/04 06:30:02;;;;;;;;;;;17.00;61.00;;;;;;4409804;32;20033;-84
2022/12/04 06:32:27;;;;;;;;;;;17.00;60.90;;;;;;4417859;32;20049;-84
2022/12/04 06:34:54;;;;;;;;;;;17.00;61.00;;;;;;4416732;32;20062;-84
2022/12/04 06:37:21;;;;;;;;;;;17.00;61.00;;;;;;4416742;32;19991;-84
2022/12/04 06:39:46;;;;;;;;;;;17.00;61.10;;;;;;4416588;32;19971;-83
2022/12/04 06:42:12;;;;;;;;;;;17.00;61.00;;;;;;4416532;32;19975;-83
2022/12/04 06:44:38;;;;;;;;;;;17.00;61.10;;;;;;4416905;32;19963;-84
2022/12/04 06:47:04;;;;;;;;;;;17.00;61.10;;;;;;4416598;32;20376;-84
2022/12/04 06:49:29;;;;;;;;;;;16.90;61.00;;;;;;4416699;32;20317;-84
2022/12/04 06:51:55;;;;;;;;;;;16.90;61.00;;;;;;4416411;32;19975;-84
2022/12/04 06:54:21;;;;;;;;;;;16.90;61.00;;;;;;4416779;32;19975;-84
2022/12/04 06:56:47;;;;;;;;;;;16.90;61.00;;;;;;4416557;32;19968;-83
2022/12/04 06:59:13;;;;;;;;;;;16.90;61.00;;;;;;4416252;32;20037;-83
2022/12/04 07:01:38;;;;;;;;;;;16.90;61.00;;;;;;4416263;32;19983;-84
2022/12/04 07:04:04;;;;;;;;;;;16.90;61.00;;;;;;4416406;32;19975;-84
2022/12/04 07:06:32;;;;;;;;;;;16.90;61.10;;;;;;4402708;32;20389;-84
2022/12/04 07:09:09;;;;;;;;;;;16.90;61.00;;;;;;4402631;32;19987;-84
2022/12/04 07:11:36;;;;;;;;;;;16.90;61.00;;;;;;4416540;32;20401;-84
2022/12/04 07:14:01;;;;;;;;;;;16.90;61.00;;;;;;4416341;32;19983;-84
2022/12/04 07:16:28;;;;;;;;;;;16.90;61.00;;;;;;4416202;32;20412;-84
2022/12/04 07:18:55;;;;;;;;;;;16.90;61.10;;;;;;4416277;32;20353;-84
2022/12/04 07:21:22;;;;;;;;;;;16.90;61.10;;;;;;4415966;32;20518;-84
2022/12/04 07:23:50;;;;;;;;;;;16.90;61.10;;;;;;4416269;32;20419;-84
2022/12/04 07:26:16;;;;;;;;;;;16.80;61.10;;;;;;4414945;32;20003;-84
2022/12/04 07:28:44;;;;;;;;;;;16.90;61.10;;;;;;4416254;32;19979;-84
2022/12/04 07:31:11;;;;;;;;;;;16.80;61.10;;;;;;4401914;32;19979;-84
2022/12/04 07:33:37;;;;;;;;;;;16.80;61.10;;;;;;4415681;32;20117;-84
2022/12/04 07:36:03;;;;;;;;;;;16.80;61.20;;;;;;4416056;32;20069;-84
2022/12/04 07:38:29;;;;;;;;;;;16.90;61.20;;;;;;4415715;32;19975;-83
2022/12/04 07:40:55;;;;;;;;;;;16.80;61.20;;;;;;4415722;32;19975;-84
2022/12/04 07:43:21;;;;;;;;;;;16.80;61.20;;;;;;4415474;32;19971;-83
2022/12/04 07:45:47;;;;;;;;;;;16.80;61.10;;;;;;4415939;32;19978;-83
2022/12/04 07:48:13;;;;;;;;;;;16.80;61.10;;;;;;4415800;32;20034;-84
2022/12/04 07:50:38;;;;;;;;;;;16.80;61.10;;;;;;4414377;32;19971;-84
2022/12/04 07:53:04;;;;;;;;;;;16.80;61.10;;;;;;4415795;32;20089;-84
2022/12/04 07:55:29;;;;;;;;;;;16.80;61.20;;;;;;4415682;32;19971;-84
2022/12/04 07:57:55;;;;;;;;;;;16.80;61.20;;;;;;4415726;32;19967;-84
2022/12/04 08:00:21;;;;;;;;;;;16.80;61.20;;;;;;4415076;32;19983;-83
2022/12/04 08:02:48;;;;;;;;;;;16.80;61.20;;;;;;4415748;32;20058;-84
2022/12/04 08:05:13;;;;;;;;;;;16.80;61.20;;;;;;4415296;32;20018;-83
2022/12/04 08:07:39;;;;;;;;;;;16.80;62.00;;;;;;4415394;32;20389;-83
2022/12/04 08:10:05;;;;;;;;;;;16.80;61.20;;;;;;4415415;32;20045;-83
2022/12/04 08:12:31;;;;;;;;;;;16.80;61.10;;;;;;4414300;32;19974;-80
2022/12/04 08:14:57;;;;;;;;;;;16.80;61.20;;;;;;4415458;32;19975;-81
2022/12/04 08:17:23;;;;;;;;;;;16.80;61.80;;;;;;4415302;32;20061;-80
2022/12/04 08:19:49;;;;;;;;;;;16.80;61.90;;;;;;4415369;32;19982;-80
2022/12/04 08:22:15;;;;;;;;;;;16.80;62.70;;;;;;4415272;32;20102;-79
2022/12/04 08:24:40;;;;;;;;;;;16.80;62.90;;;;;;4415087;32;20148;-79
2022/12/04 08:27:06;;;;;;;;;;;16.80;63.70;;;;;;4415332;32;20015;-81
2022/12/04 08:29:33;;;;;;;;;;;16.90;62.50;;;;;;4415026;32;19994;-81
2022/12/04 08:31:58;;;;;;;;;;;17.00;62.30;;;;;;4413701;32;19975;-80
2022/12/04 08:34:24;;;;;;;;;;;17.10;62.00;;;;;;4415100;32;20488;-80
2022/12/04 08:36:50;;;;;;;;;;;17.20;61.70;;;;;;4404616;32;20121;-81
2022/12/04 08:39:15;;;;;;;;;;;17.40;61.40;;;;;;4409781;32;19963;-79
2022/12/04 08:41:41;;;;;;;;;;;17.50;61.00;;;;;;4390429;32;20046;-81
2022/12/04 08:44:07;;;;;;;;;;;17.60;60.70;;;;;;4400990;32;19975;-81
2022/12/04 08:46:33;;;;;;;;;;;17.80;60.40;;;;;;4400312;32;20006;-80
2022/12/04 08:48:59;;;;;;;;;;;17.90;60.00;;;;;;4400394;32;19992;-81
2022/12/04 08:51:26;;;;;;;;;;;18.00;59.70;;;;;;4403095;32;20441;-80
2022/12/04 08:53:56;;;;;;;;;;;18.20;59.40;;;;;;4412187;32;20038;-82
2022/12/04 08:56:22;;;;;;;;;;;18.30;59.10;;;;;;4407475;32;19972;-81
2022/12/04 08:58:48;;;;;;;;;;;18.50;58.80;;;;;;4414782;32;19975;-80
2022/12/04 09:01:14;;;;;;;;;;;18.60;58.40;;;;;;4414310;32;20008;-80
2022/12/04 09:03:40;;;;;;;;;;;18.70;58.10;;;;;;4414624;32;20054;-80
2022/12/04 09:06:06;;;;;;;;;;;18.80;57.80;;;;;;4399461;32;19963;-80
2022/12/04 09:08:32;;;;;;;;;;;18.90;57.60;;;;;;4399030;32;19987;-80
2022/12/04 09:11:05;;;;;;;;;;;19.10;57.40;;;;;;4410543;32;19975;-80
2022/12/04 09:13:31;;;;;;;;;;;19.10;57.20;;;;;;4400376;32;19987;-79
2022/12/04 09:15:57;;;;;;;;;;;19.20;57.00;;;;;;4401247;32;20031;-79
2022/12/04 09:18:22;;;;;;;;;;;19.20;56.90;;;;;;4387796;32;20370;-80
2022/12/04 09:20:55;;;;;;;;;;;19.20;56.80;;;;;;4398445;32;20015;-79
2022/12/04 09:23:21;;;;;;;;;;;19.30;56.70;;;;;;4399185;32;20074;-80
2022/12/04 09:25:47;;;;;;;;;;;19.30;56.70;;;;;;4401012;32;20520;-78
2022/12/04 09:28:13;;;;;;;;;;;19.30;56.70;;;;;;4401364;32;20175;-79
2022/12/04 09:30:39;;;;;;;;;;;19.30;56.70;;;;;;4402095;32;19990;-81
2022/12/04 09:33:05;;;;;;;;;;;19.30;56.70;;;;;;4399231;32;19972;-80
2022/12/04 09:35:30;;;;;;;;;;;19.30;56.70;;;;;;4405334;32;19982;-80
2022/12/04 09:37:58;;;;;;;;;;;19.30;56.60;;;;;;4402334;32;19964;-82
2022/12/04 09:40:33;;;;;;;;;;;19.30;56.50;;;;;;4403751;32;19979;-80
2022/12/04 09:43:05;;;;;;;;;;;19.30;56.40;;;;;;4400024;32;19979;-81
2022/12/04 09:45:38;;;;;;;;;;;19.30;56.40;;;;;;4401584;32;20049;-80
2022/12/04 09:48:07;;;;;;;;;;;19.40;56.40;;;;;;4398965;32;19979;-80
2022/12/04 09:50:36;;;;;;;;;;;19.40;56.40;;;;;;4402533;32;19971;-80
2022/12/04 09:53:04;;;;;;;;;;;19.40;56.30;;;;;;4414377;32;19990;-80
2022/12/04 09:55:35;;;;;;;;;;;19.40;56.30;;;;;;4414263;32;19991;-79
2022/12/04 09:58:02;;;;;;;;;;;19.40;56.20;;;;;;4414441;32;19987;-80
2022/12/04 10:00:28;;;;;;;;;;;19.40;56.20;;;;;;4413738;32;20189;-79
2022/12/04 10:02:57;;;;;;;;;;;19.40;56.20;;;;;;4414433;32;20010;-79
2022/12/04 10:05:43;;;;;;;;;;;19.40;56.30;;;;;;4413847;32;20006;-79
2022/12/04 10:08:15;;;;;;;;;;;19.40;56.30;;;;;;4416716;32;20057;-79
2022/12/04 10:10:42;;;;;;;;;;;19.40;56.40;;;;;;4416992;32;19987;-79
2022/12/04 10:13:08;;;;;;;;;;;19.50;56.30;;;;;;4417174;32;19971;-79
2022/12/04 10:15:37;;;;;;;;;;;19.50;56.40;;;;;;4417047;32;19990;-80
2022/12/04 10:18:21;;;;;;;;;;;19.50;56.40;;;;;;4417182;32;20089;-80
2022/12/04 10:20:56;;;;;;;;;;;19.50;56.40;;;;;;4403424;32;20361;-83
2022/12/04 10:23:24;;;;;;;;;;;19.60;56.50;;;;;;4416976;32;20007;-82
2022/12/04 10:25:52;;;;;;;;;;;19.50;56.60;;;;;;4403035;32;20091;-79
2022/12/04 10:28:28;;;;;;;;;;;19.50;56.70;;;;;;4401806;32;19984;-81
2022/12/04 10:30:56;;;;;;;;;;;19.50;56.80;;;;;;4413234;32;20568;-80
2022/12/04 10:33:24;;;;;;;;;;;19.50;57.00;;;;;;4416735;32;20016;-80
2022/12/04 10:35:51;;;;;;;;;;;19.50;57.10;;;;;;4416927;32;20182;-83
2022/12/04 10:38:25;;;;;;;;;;;19.50;57.20;;;;;;4416616;32;19990;-80
2022/12/04 10:40:52;;;;;;;;;;;19.50;57.20;;;;;;4416813;32;19986;-80
2022/12/04 10:43:38;;;;;;;;;;;19.50;57.30;;;;;;4416704;32;20019;-83
2022/12/04 10:46:04;;;;;;;;;;;19.50;57.30;;;;;;4397338;32;19986;-79
2022/12/04 10:48:35;;;;;;;;;;;19.50;57.30;;;;;;4416451;32;19971;-78
2022/12/04 10:51:00;;;;;;;;;;;19.50;57.30;;;;;;4416740;32;20141;-78
2022/12/04 10:53:29;;;;;;;;;;;19.50;57.30;;;;;;4403962;32;20406;-78
2022/12/04 10:55:55;;;;;;;;;;;19.50;57.30;;;;;;4406481;32;20038;-78
2022/12/04 10:58:20;;;;;;;;;;;19.50;57.40;;;;;;4409857;32;20019;-82
2022/12/04 11:01:03;;;;;;;;;;;19.50;57.40;;;;;;4416039;32;20381;-79
2022/12/04 11:03:30;;;;;;;;;;;19.50;57.40;;;;;;4416481;32;20035;-81
2022/12/04 11:05:57;;;;;;;;;;;19.50;57.50;;;;;;4414816;32;20492;-79
2022/12/04 11:08:24;;;;;;;;;;;19.50;57.40;;;;;;4406096;32;19971;-82
2022/12/04 11:10:58;;;;;;;;;;;19.50;57.40;;;;;;4402280;32;19984;-81
2022/12/04 11:13:24;;;;;;;;;;;19.50;57.40;;;;;;4401158;32;19979;-83
2022/12/04 11:15:51;;;;;;;;;;;19.50;57.40;;;;;;4404151;32;20070;-81
2022/12/04 11:18:18;;;;;;;;;;;19.50;57.50;;;;;;4402464;32;20599;-83
2022/12/04 11:20:52;;;;;;;;;;;19.50;57.50;;;;;;4402791;32;19994;-83
2022/12/04 11:23:18;;;;;;;;;;;19.50;57.60;;;;;;4401045;32;20019;-83
2022/12/04 11:25:45;;;;;;;;;;;19.50;57.50;;;;;;4401623;32;19968;-81
2022/12/04 11:28:15;;;;;;;;;;;19.50;57.50;;;;;;4406535;32;19987;-81
2022/12/04 11:30:45;;;;;;;;;;;19.50;57.60;;;;;;4398846;32;20038;-83
2022/12/04 11:33:17;;;;;;;;;;;19.50;57.50;;;;;;4401284;32;20302;-84
2022/12/04 11:35:49;;;;;;;;;;;19.50;57.50;;;;;;4387485;32;19991;-84
2022/12/04 11:38:15;;;;;;;;;;;19.50;57.50;;;;;;4401337;32;20113;-81
2022/12/04 11:40:45;;;;;;;;;;;19.50;57.50;;;;;;4402219;32;20118;-81
2022/12/04 11:43:12;;;;;;;;;;;19.50;57.50;;;;;;4401165;32;20054;-81
2022/12/04 11:45:38;;;;;;;;;;;19.50;57.50;;;;;;4401745;32;20370;-80
2022/12/04 11:48:13;;;;;;;;;;;19.50;57.50;;;;;;4401240;32;19982;-82
2022/12/04 11:50:44;;;;;;;;;;;19.50;57.50;;;;;;4413714;32;20378;-82
2022/12/04 11:53:28;;;;;;;;;;;19.60;57.50;;;;;;4400541;32;20416;-82
2022/12/04 11:55:57;;;;;;;;;;;19.60;57.50;;;;;;4402581;32;19986;-79
2022/12/04 11:58:22;;;;;;;;;;;19.60;57.50;;;;;;4399815;32;20101;-80
2022/12/04 12:01:07;;;;;;;;;;;19.60;57.40;;;;;;4400548;32;19964;-81
2022/12/04 12:03:51;;;;;;;;;;;19.60;57.40;;;;;;4401006;32;19984;-82
2022/12/04 12:06:22;;;;;;;;;;;19.60;57.40;;;;;;4400462;32;20147;-80
2022/12/04 12:08:51;;;;;;;;;;;19.60;57.30;;;;;;4400548;32;20467;-81
2022/12/04 12:11:23;;;;;;;;;;;19.60;57.30;;;;;;4400655;32;20011;-78
2022/12/04 12:13:54;;;;;;;;;;;19.60;57.30;;;;;;4400409;32;19976;-79
2022/12/04 12:16:20;;;;;;;;;;;19.60;57.30;;;;;;4413754;32;19979;-79
2022/12/04 12:18:58;;;;;;;;;;;19.60;57.30;;;;;;4415064;32;20416;-81
2022/12/04 12:21:33;;;;;;;;;;;19.60;57.40;;;;;;4414293;32;19983;-84
2022/12/04 12:24:18;;;;;;;;;;;19.60;57.40;;;;;;4400284;32;20082;-84
2022/12/04 12:26:47;;;;;;;;;;;19.60;57.40;;;;;;4400786;32;19975;-85
2022/12/04 12:29:15;;;;;;;;;;;19.60;57.40;;;;;;4401382;32;20303;-83
2022/12/04 12:31:50;;;;;;;;;;;19.60;57.40;;;;;;4400840;32;20034;-85
2022/12/04 12:34:21;;;;;;;;;;;19.60;57.40;;;;;;4398904;32;19994;-83
2022/12/04 12:36:49;;;;;;;;;;;19.60;57.40;;;;;;4411923;32;20129;-83
2022/12/04 12:39:17;;;;;;;;;;;19.60;58.40;;;;;;4415050;32;20037;-84
2022/12/04 12:41:49;;;;;;;;;;;19.60;57.40;;;;;;4414084;32;19985;-75
2022/12/04 12:44:18;;;;;;;;;;;19.60;57.40;;;;;;4414789;32;20118;-82
2022/12/04 12:46:51;;;;;;;;;;;19.60;57.50;;;;;;4414682;32;20507;-82
2022/12/04 12:49:34;;;;;;;;;;;19.60;57.50;;;;;;4414918;32;19975;-82
2022/12/04 12:52:20;;;;;;;;;;;19.60;57.40;;;;;;4414725;32;20065;-81
2022/12/04 12:54:58;;;;;;;;;;;19.60;57.50;;;;;;4408803;32;20037;-82
2022/12/04 12:57:29;;;;;;;;;;;19.60;57.50;;;;;;4413236;32;20563;-82
2022/12/04 13:00:14;;;;;;;;;;;19.50;57.50;;;;;;4400895;32;20012;-80
2022/12/04 13:02:54;;;;;;;;;;;19.50;57.40;;;;;;4414506;32;20033;-83
2022/12/04 13:05:24;;;;;;;;;;;19.60;57.40;;;;;;4414358;32;20040;-81
2022/12/04 13:08:08;;;;;;;;;;;19.60;57.30;;;;;;4414577;32;19997;-81
2022/12/04 13:10:40;;;;;;;;;;;19.60;58.10;;;;;;4414653;32;20113;-81
2022/12/04 13:13:12;;;;;;;;;;;19.70;57.10;;;;;;4414656;32;20076;-82
2022/12/04 13:15:41;;;;;;;;;;;19.70;57.00;;;;;;4414396;32;20325;-81
2022/12/04 13:18:08;;;;;;;;;;;19.70;56.90;;;;;;4414666;32;20527;-81
2022/12/04 13:20:37;;;;;;;;;;;19.80;56.90;;;;;;4414407;32;19987;-81
2022/12/04 13:23:03;;;;;;;;;;;19.80;56.90;;;;;;4414333;32;19971;-81
2022/12/04 13:25:41;;;;;;;;;;;19.80;56.80;;;;;;4414306;32;19999;-69
2022/12/04 13:28:14;;;;;;;;;;;19.80;56.80;;;;;;4414095;32;20053;-83
2022/12/04 13:30:58;;;;;;;;;;;19.80;56.80;;;;;;4414086;32;19990;-83
2022/12/04 13:33:24;;;;;;;;;;;19.80;56.80;;;;;;4414335;32;19986;-86
2022/12/04 13:35:59;;;;;;;;;;;19.80;56.70;;;;;;4414644;32;19987;-86
2022/12/04 13:38:25;;;;;;;;;;;19.80;56.70;;;;;;4414289;32;20186;-82
2022/12/04 13:40:51;;;;;;;;;;;19.80;56.70;;;;;;4414580;32;20294;-84
2022/12/04 13:43:23;;;;;;;;;;;19.90;56.70;;;;;;4403647;32;19998;-85
2022/12/04 13:45:50;;;;;;;;;;;19.90;56.90;;;;;;4417584;32;19987;-84
2022/12/04 13:48:31;;;;;;;;;;;19.90;56.90;;;;;;4417423;32;20022;-84
2022/12/04 13:51:04;;;;;;;;;;;20.00;57.00;;;;;;4417352;32;19975;-71
2022/12/04 13:53:36;;;;;;;;;;;20.00;57.00;;;;;;4416839;32;20010;-86
2022/12/04 13:56:02;;;;;;;;;;;20.10;57.00;;;;;;4415350;32;20456;-85
2022/12/04 13:58:29;;;;;;;;;;;20.10;56.90;;;;;;4416895;32;19998;-86
2022/12/04 14:01:11;;;;;;;;;;;20.20;56.90;;;;;;4416477;32;20003;-85
2022/12/04 14:03:48;;;;;;;;;;;20.20;56.80;;;;;;4416785;32;20057;-87
2022/12/04 14:06:19;;;;;;;;;;;20.30;56.70;;;;;;4412883;32;20037;-85
2022/12/04 14:08:45;;;;;;;;;;;20.30;56.60;;;;;;4402309;32;20547;-85
2022/12/04 14:11:13;;;;;;;;;;;20.30;56.50;;;;;;4404575;32;19978;-83
2022/12/04 14:13:41;;;;;;;;;;;20.30;56.50;;;;;;4401562;32;19986;-82
2022/12/04 14:16:15;;;;;;;;;;;20.30;56.50;;;;;;4403362;32;19975;-85
2022/12/04 14:18:45;;;;;;;;;;;20.40;56.50;;;;;;4403012;32;20035;-84
2022/12/04 14:21:10;;;;;;;;;;;20.40;56.50;;;;;;4404005;32;20069;-84
2022/12/04 14:23:38;;;;;;;;;;;20.40;56.50;;;;;;4402576;32;21414;-84
2022/12/04 14:26:04;;;;;;;;;;;20.30;56.50;;;;;;4402865;32;19987;-85
2022/12/04 14:28:29;;;;;;;;;;;20.40;56.40;;;;;;4401671;32;19983;-82
2022/12/04 14:31:05;;;;;;;;;;;20.40;56.40;;;;;;4401500;32;20004;-83
2022/12/04 14:33:32;;;;;;;;;;;20.40;56.40;;;;;;4399812;32;19979;-84
2022/12/04 14:36:02;;;;;;;;;;;20.40;56.40;;;;;;4400733;32;20110;-83
2022/12/04 14:38:28;;;;;;;;;;;20.40;56.30;;;;;;4402072;32;20043;-84
2022/12/04 14:40:56;;;;;;;;;;;20.40;56.30;;;;;;4407146;32;20417;-85